createdAt,value
2022-10-01T00:01:25.090Z,93.28
2022-10-01T00:03:53.357Z,93.29
2022-10-01T00:06:22.505Z,93.48
2022-10-01T00:08:50.971Z,93.47
2022-10-01T00:13:55.843Z,93.23
2022-10-01T00:16:25.781Z,93.72
2022-10-01T00:18:54.275Z,93.52
2022-10-01T00:21:25.250Z,93.41
2022-10-01T00:23:58.360Z,93.37
2022-10-01T00:26:29.278Z,92.95
2022-10-01T00:29:01.554Z,93.21
2022-10-01T00:31:30.267Z,93.18
2022-10-01T00:33:59.594Z,93.21
2022-10-01T00:36:28.039Z,93.36
2022-10-01T00:39:00.992Z,93.19
2022-10-01T00:41:31.513Z,93.16
2022-10-01T00:44:01.715Z,93.19
2022-10-01T00:46:39.339Z,93.54
2022-10-01T00:49:14.695Z,93.98
2022-10-01T00:51:47.179Z,93.81
2022-10-01T00:54:19.829Z,93.98
2022-10-01T00:56:47.894Z,94.31
2022-10-01T00:59:16.669Z,94.02
2022-10-01T01:01:44.765Z,94.02
2022-10-01T01:04:19.551Z,93.50
2022-10-01T01:06:56.060Z,94.04
2022-10-01T01:09:30.780Z,93.89
2022-10-01T01:12:37.686Z,94.07
2022-10-01T01:18:03.454Z,94.39
2022-10-01T01:20:51.961Z,94.33
2022-10-01T01:29:18.552Z,94.55
2022-10-01T01:31:47.414Z,94.56
2022-10-01T01:34:22.044Z,94.60
2022-10-01T01:36:58.897Z,94.41
2022-10-01T01:39:30.087Z,94.49
2022-10-01T01:42:03.039Z,94.04
2022-10-01T01:44:35.887Z,94.42
2022-10-01T01:47:07.686Z,94.42
2022-10-01T01:49:36.126Z,94.31
2022-10-01T01:52:09.836Z,94.19
2022-10-01T01:54:37.146Z,94.64
2022-10-01T01:57:05.434Z,95.03
2022-10-01T01:59:34.161Z,94.74
2022-10-01T02:02:01.758Z,94.43
2022-10-01T02:04:55.198Z,94.41
2022-10-01T02:10:23.210Z,94.40
2022-10-01T02:26:38.613Z,93.87
2022-10-01T02:29:15.581Z,94.63
2022-10-01T02:31:42.950Z,94.68
2022-10-01T02:34:12.845Z,95.04
2022-10-01T02:36:42.404Z,94.25
2022-10-01T02:39:11.092Z,94.74
2022-10-01T02:41:38.382Z,94.64
2022-10-01T02:44:11.974Z,94.70
2022-10-01T02:47:04.753Z,94.18
2022-10-01T02:49:32.358Z,94.89
2022-10-01T02:52:25.011Z,94.54
2022-10-01T02:55:15.316Z,95.00
2022-10-01T02:57:43.154Z,94.45
2022-10-01T03:00:15.569Z,94.56
2022-10-01T03:02:43.022Z,94.72
2022-10-01T03:05:10.471Z,94.81
2022-10-01T03:07:38.355Z,94.88
2022-10-01T03:10:07.719Z,94.83
2022-10-01T03:12:36.114Z,93.71
2022-10-01T03:15:04.240Z,94.59
2022-10-01T03:17:31.544Z,94.46
2022-10-01T03:19:58.876Z,94.63
2022-10-01T03:22:26.301Z,94.94
2022-10-01T03:24:54.352Z,94.11
2022-10-01T03:27:22.730Z,94.33
2022-10-01T03:29:50.665Z,94.36
2022-10-01T03:32:18.882Z,95.19
2022-10-01T03:34:46.654Z,93.65
2022-10-01T03:37:13.929Z,94.16
2022-10-01T03:39:41.228Z,94.24
2022-10-01T03:42:08.872Z,94.96
2022-10-01T03:44:36.166Z,94.23
2022-10-01T03:47:03.432Z,94.99
2022-10-01T03:49:30.785Z,94.79
2022-10-01T03:51:58.156Z,94.72
2022-10-01T03:54:25.771Z,94.16
2022-10-01T03:56:53.029Z,94.74
2022-10-01T03:59:20.586Z,94.95
2022-10-01T04:01:48.273Z,94.81
2022-10-01T04:04:15.683Z,94.39
2022-10-01T04:06:43.054Z,94.05
2022-10-01T04:09:10.381Z,94.58
2022-10-01T04:11:38.112Z,94.89
2022-10-01T04:14:06.010Z,94.82
2022-10-01T04:16:36.599Z,94.10
2022-10-01T04:19:05.157Z,93.95
2022-10-01T04:21:32.898Z,94.50
2022-10-01T04:24:01.365Z,93.99
2022-10-01T04:26:28.843Z,93.88
2022-10-01T04:28:56.510Z,94.41
2022-10-01T04:31:25.148Z,94.66
2022-10-01T04:33:54.176Z,94.41
2022-10-01T04:36:21.978Z,93.93
2022-10-01T04:38:56.627Z,93.99
2022-10-01T04:41:27.030Z,93.81
2022-10-01T04:43:54.315Z,94.18
2022-10-01T04:46:21.718Z,93.96
2022-10-01T04:48:54.638Z,94.27
2022-10-01T04:51:22.451Z,94.01
2022-10-01T04:53:51.910Z,94.09
2022-10-01T04:56:24.640Z,94.23
2022-10-01T04:58:54.955Z,94.34
2022-10-01T05:01:22.446Z,93.43
2022-10-01T05:03:49.934Z,94.39
2022-10-01T05:06:17.377Z,93.46
2022-10-01T05:08:45.343Z,93.72
2022-10-01T05:11:12.926Z,94.04
2022-10-01T05:13:40.414Z,93.86
2022-10-01T05:16:08.336Z,93.49
2022-10-01T05:18:35.931Z,94.10
2022-10-01T05:21:07.304Z,93.80
2022-10-01T05:23:34.732Z,93.95
2022-10-01T05:26:04.529Z,93.77
2022-10-01T05:28:33.029Z,92.94
2022-10-01T05:31:02.987Z,93.30
2022-10-01T05:33:31.443Z,93.43
2022-10-01T05:35:59.174Z,93.29
2022-10-01T05:38:26.726Z,92.91
2022-10-01T05:40:54.137Z,93.51
2022-10-01T05:43:21.639Z,93.10
2022-10-01T05:45:50.017Z,93.49
2022-10-01T05:48:17.555Z,93.11
2022-10-01T05:50:45.311Z,93.27
2022-10-01T05:53:14.248Z,93.11
2022-10-01T05:55:41.815Z,92.83
2022-10-01T05:58:11.556Z,92.64
2022-10-01T06:00:41.075Z,92.43
2022-10-01T06:03:09.323Z,92.36
2022-10-01T06:05:37.150Z,92.79
2022-10-01T06:08:07.804Z,92.51
2022-10-01T06:10:37.153Z,92.18
2022-10-01T06:13:05.919Z,92.75
2022-10-01T06:15:37.971Z,92.12
2022-10-01T06:18:07.571Z,92.48
2022-10-01T06:20:35.681Z,92.60
2022-10-01T06:23:06.053Z,92.72
2022-10-01T06:25:36.711Z,92.02
2022-10-01T06:28:06.230Z,92.89
2022-10-01T06:30:36.948Z,92.48
2022-10-01T06:33:07.473Z,92.57
2022-10-01T06:35:39.836Z,92.48
2022-10-01T06:38:08.381Z,92.63
2022-10-01T06:40:35.957Z,92.66
2022-10-01T06:43:04.068Z,92.29
2022-10-01T06:45:31.876Z,92.65
2022-10-01T06:48:03.383Z,92.31
2022-10-01T06:50:32.446Z,92.23
2022-10-01T06:53:00.944Z,92.14
2022-10-01T06:55:31.747Z,91.88
2022-10-01T06:58:01.741Z,92.44
2022-10-01T07:00:31.495Z,92.47
2022-10-01T07:02:59.915Z,92.57
2022-10-01T07:05:28.331Z,92.32
2022-10-01T07:07:55.797Z,92.86
2022-10-01T07:10:23.560Z,92.96
2022-10-01T07:12:51.165Z,92.68
2022-10-01T07:15:21.500Z,92.83
2022-10-01T07:17:51.184Z,92.76
2022-10-01T07:20:20.950Z,92.50
2022-10-01T07:22:49.273Z,92.79
2022-10-01T07:25:17.530Z,92.45
2022-10-01T07:27:45.162Z,93.07
2022-10-01T07:30:12.843Z,93.02
2022-10-01T07:32:43.423Z,92.74
2022-10-01T07:35:11.627Z,92.69
2022-10-01T07:37:39.036Z,92.17
2022-10-01T07:40:12.044Z,92.21
2022-10-01T07:42:39.516Z,91.98
2022-10-01T07:45:07.667Z,91.86
2022-10-01T07:47:35.379Z,91.93
2022-10-01T07:50:03.461Z,91.63
2022-10-01T07:52:31.527Z,91.66
2022-10-01T07:54:58.962Z,91.90
2022-10-01T07:57:26.441Z,91.84
2022-10-01T07:59:56.018Z,91.87
2022-10-01T08:02:24.735Z,92.13
2022-10-01T08:05:12.000Z,91.94
2022-10-01T08:07:39.403Z,91.79
2022-10-01T08:10:07.220Z,91.59
2022-10-01T08:12:34.844Z,91.58
2022-10-01T08:15:03.303Z,91.13
2022-10-01T08:17:30.971Z,91.16
2022-10-01T08:19:58.423Z,90.99
2022-10-01T08:22:25.875Z,91.17
2022-10-01T08:24:53.521Z,91.04
2022-10-01T08:27:20.968Z,90.64
2022-10-01T08:29:48.555Z,91.02
2022-10-01T08:32:17.176Z,90.96
2022-10-01T08:34:45.400Z,90.84
2022-10-01T08:37:13.277Z,90.99
2022-10-01T08:39:40.764Z,90.84
2022-10-01T08:42:41.878Z,90.80
2022-10-01T08:45:18.050Z,90.38
2022-10-01T08:47:56.327Z,90.31
2022-10-01T08:50:39.233Z,90.17
2022-10-01T08:53:15.717Z,89.85
2022-10-01T08:55:44.597Z,89.83
2022-10-01T08:58:20.140Z,89.85
2022-10-01T09:00:50.132Z,90.08
2022-10-01T09:03:19.289Z,90.31
2022-10-01T09:08:47.597Z,89.86
2022-10-01T09:11:25.200Z,90.22
2022-10-01T09:14:19.686Z,89.91
2022-10-01T09:17:04.682Z,90.07
2022-10-01T09:19:59.248Z,89.98
2022-10-01T09:25:29.270Z,90.70
2022-10-01T09:28:03.143Z,90.42
2022-10-01T09:30:32.228Z,90.50
2022-10-01T09:33:12.164Z,89.94
2022-10-01T09:40:59.061Z,89.50
2022-10-01T09:43:31.389Z,89.92
2022-10-01T09:45:59.409Z,89.95
2022-10-01T09:48:38.091Z,89.89
2022-10-01T09:56:38.008Z,89.84
2022-10-01T09:59:12.029Z,90.05
2022-10-01T10:04:23.901Z,90.13
2022-10-01T10:06:53.691Z,90.25
2022-10-01T10:09:28.565Z,89.98
2022-10-01T10:11:58.360Z,90.27
2022-10-01T10:14:59.676Z,90.56
2022-10-01T10:17:28.138Z,90.15
2022-10-01T10:19:55.842Z,90.61
2022-10-01T10:22:27.464Z,90.30
2022-10-01T10:24:59.282Z,90.82
2022-10-01T10:27:30.499Z,90.44
2022-10-01T10:30:14.718Z,90.66
2022-10-01T10:32:45.966Z,90.52
2022-10-01T10:35:20.851Z,90.74
2022-10-01T10:37:51.910Z,90.41
2022-10-01T10:40:29.081Z,90.37
2022-10-01T10:42:59.129Z,90.43
2022-10-01T10:45:33.999Z,90.40
2022-10-01T10:48:04.883Z,90.95
2022-10-01T10:50:37.014Z,91.06
2022-10-01T10:53:22.732Z,91.06
2022-10-01T10:56:08.001Z,91.10
2022-10-01T10:58:42.658Z,91.27
2022-10-01T11:01:16.550Z,90.96
2022-10-01T11:03:53.553Z,91.12
2022-10-01T11:06:21.104Z,91.46
2022-10-01T11:08:57.901Z,91.06
2022-10-01T11:14:45.207Z,91.25
2022-10-01T11:28:40.647Z,89.65
2022-10-01T11:31:14.615Z,88.89
2022-10-01T11:34:10.650Z,87.81
2022-10-01T11:39:19.218Z,87.15
2022-10-01T11:47:21.118Z,86.87
2022-10-01T11:55:39.127Z,86.81
2022-10-01T12:01:01.675Z,87.27
2022-10-01T12:03:43.751Z,86.33
2022-10-01T12:06:15.287Z,85.95
2022-10-01T12:08:53.471Z,85.42
2022-10-01T12:11:30.227Z,85.61
2022-10-01T12:14:03.990Z,85.45
2022-10-01T12:16:45.101Z,85.40
2022-10-01T12:21:56.972Z,85.31
2022-10-01T12:24:31.162Z,85.42
2022-10-01T12:27:28.065Z,84.73
2022-10-01T12:30:05.281Z,84.36
2022-10-01T12:35:57.483Z,83.97
2022-10-01T12:38:44.475Z,84.24
2022-10-01T12:49:49.654Z,84.93
2022-10-01T13:00:50.915Z,83.66
2022-10-01T13:12:12.421Z,83.38
2022-10-01T13:14:44.814Z,83.74
2022-10-01T13:20:20.148Z,84.27
2022-10-01T13:23:18.958Z,83.87
2022-10-01T13:32:00.690Z,84.65
2022-10-01T13:37:32.217Z,85.61
2022-10-01T13:40:00.635Z,85.54
2022-10-01T13:45:08.159Z,85.64
2022-10-01T13:47:41.261Z,86.21
2022-10-01T13:50:22.425Z,86.08
2022-10-01T13:52:51.068Z,86.19
2022-10-01T13:55:29.352Z,86.34
2022-10-01T13:58:07.616Z,86.42
2022-10-01T14:00:35.188Z,86.30
2022-10-01T14:03:42.456Z,86.79
2022-10-01T14:06:18.918Z,86.55
2022-10-01T14:11:49.014Z,87.23
2022-10-01T14:17:13.479Z,87.89
2022-10-01T14:19:47.519Z,87.91
2022-10-01T14:22:41.614Z,87.99
2022-10-01T14:25:36.603Z,87.71
2022-10-01T14:30:56.134Z,87.80
2022-10-01T14:36:44.508Z,88.44
2022-10-01T14:41:55.847Z,88.09
2022-10-01T14:47:11.755Z,88.33
2022-10-01T14:49:39.270Z,88.36
2022-10-01T14:52:19.143Z,88.60
2022-10-01T14:54:51.912Z,88.64
2022-10-01T15:00:11.661Z,89.07
2022-10-01T15:05:39.928Z,88.86
2022-10-01T15:08:39.879Z,89.39
2022-10-01T15:11:12.642Z,89.05
2022-10-01T15:13:43.558Z,89.71
2022-10-01T15:16:16.886Z,90.08
2022-10-01T15:18:49.616Z,88.91
2022-10-01T15:21:23.410Z,89.12
2022-10-01T15:23:51.557Z,89.27
2022-10-01T15:26:29.795Z,89.44
2022-10-01T15:29:12.717Z,89.60
2022-10-01T15:31:49.943Z,89.81
2022-10-01T15:34:21.526Z,89.68
2022-10-01T15:36:51.038Z,89.98
2022-10-01T15:42:03.353Z,90.15
2022-10-01T15:44:50.865Z,90.02
2022-10-01T15:58:32.168Z,91.21
2022-10-01T16:01:05.442Z,91.35
2022-10-01T16:06:35.441Z,90.87
2022-10-01T16:12:04.323Z,91.14
2022-10-01T16:14:59.910Z,91.12
2022-10-01T16:17:30.149Z,91.64
2022-10-01T16:20:01.673Z,91.13
2022-10-01T16:22:35.632Z,91.33
2022-10-01T16:30:27.271Z,91.33
2022-10-01T16:32:55.919Z,91.06
2022-10-01T16:35:25.821Z,91.40
2022-10-01T16:37:56.304Z,91.60
2022-10-01T16:40:26.558Z,92.07
2022-10-01T16:42:54.843Z,91.68
2022-10-01T16:45:25.043Z,91.76
2022-10-01T16:47:53.821Z,91.91
2022-10-01T16:50:22.264Z,91.97
2022-10-01T16:52:54.692Z,92.15
2022-10-01T16:55:30.020Z,91.99
2022-10-01T16:57:57.353Z,92.37
2022-10-01T17:00:26.889Z,92.17
2022-10-01T17:02:56.524Z,92.37
2022-10-01T17:05:27.892Z,92.52
2022-10-01T17:08:01.164Z,92.28
2022-10-01T17:10:32.259Z,92.28
2022-10-01T17:12:59.933Z,92.43
2022-10-01T17:15:28.320Z,92.08
2022-10-01T17:17:57.454Z,92.13
2022-10-01T17:20:28.757Z,92.42
2022-10-01T17:22:58.057Z,92.27
2022-10-01T17:25:32.325Z,92.21
2022-10-01T17:28:01.400Z,92.59
2022-10-01T17:30:30.228Z,92.45
2022-10-01T17:33:00.243Z,92.54
2022-10-01T17:35:30.031Z,92.51
2022-10-01T17:37:58.590Z,92.43
2022-10-01T17:40:30.167Z,92.41
2022-10-01T17:42:59.620Z,92.69
2022-10-01T17:45:27.012Z,92.41
2022-10-01T17:47:54.907Z,93.13
2022-10-01T17:50:22.692Z,93.13
2022-10-01T17:52:50.684Z,92.74
2022-10-01T17:55:20.113Z,93.32
2022-10-01T17:57:47.545Z,93.14
2022-10-01T18:00:17.351Z,93.26
2022-10-01T18:02:45.798Z,92.97
2022-10-01T18:05:17.151Z,93.34
2022-10-01T18:07:45.895Z,93.82
2022-10-01T18:10:13.796Z,93.67
2022-10-01T18:12:41.563Z,93.28
2022-10-01T18:15:09.992Z,93.45
2022-10-01T18:20:26.244Z,93.61
2022-10-01T18:22:53.746Z,93.72
2022-10-01T18:25:21.200Z,93.76
2022-10-01T18:27:50.428Z,93.62
2022-10-01T18:30:18.689Z,93.95
2022-10-01T18:32:51.514Z,94.02
2022-10-01T18:35:22.263Z,94.09
2022-10-01T18:37:55.032Z,94.28
2022-10-01T18:40:29.964Z,94.42
2022-10-01T18:43:07.810Z,94.35
2022-10-01T18:46:03.836Z,94.48
2022-10-01T18:52:15.946Z,94.29
2022-10-01T18:57:42.370Z,94.33
2022-10-01T19:00:16.748Z,94.51
2022-10-01T19:08:52.069Z,94.38
2022-10-01T19:14:39.912Z,94.85
2022-10-01T19:17:34.100Z,94.58
2022-10-01T19:20:29.549Z,94.84
2022-10-01T19:26:28.800Z,94.77
2022-10-01T19:37:30.249Z,94.94
2022-10-01T19:40:05.665Z,95.22
2022-10-01T19:42:38.637Z,95.06
2022-10-01T19:45:21.705Z,95.06
2022-10-01T19:50:34.048Z,95.43
2022-10-01T19:53:03.741Z,95.23
2022-10-01T19:55:39.513Z,95.28
2022-10-01T19:58:18.060Z,95.25
2022-10-01T20:00:51.211Z,95.30
2022-10-01T20:03:39.655Z,95.69
2022-10-01T20:08:55.957Z,95.17
2022-10-01T20:16:45.522Z,95.03
2022-10-01T20:19:42.600Z,95.30
2022-10-01T20:22:45.749Z,95.38
2022-10-01T20:25:24.741Z,95.49
2022-10-01T20:30:39.631Z,95.25
2022-10-01T20:36:13.710Z,95.43
2022-10-01T20:39:05.706Z,95.19
2022-10-01T20:41:44.344Z,95.21
2022-10-01T20:44:17.649Z,95.31
2022-10-01T20:54:44.889Z,95.44
2022-10-01T20:59:54.828Z,95.42
2022-10-01T21:08:02.360Z,95.26
2022-10-01T21:10:42.771Z,95.43
2022-10-01T21:16:15.205Z,95.31
2022-10-01T21:24:39.268Z,95.19
2022-10-01T21:38:28.375Z,94.78
2022-10-01T21:46:40.381Z,94.82
2022-10-01T21:49:45.747Z,94.86
2022-10-01T21:55:20.020Z,94.56
2022-10-01T21:58:17.070Z,94.45
2022-10-01T22:01:11.452Z,94.62
2022-10-01T22:03:48.560Z,94.00
2022-10-01T22:06:27.282Z,94.61
2022-10-01T22:09:06.384Z,94.46
2022-10-01T22:11:38.801Z,94.42
2022-10-01T22:14:16.798Z,94.35
2022-10-01T22:19:49.115Z,94.27
2022-10-01T22:22:30.451Z,94.23
2022-10-01T22:25:00.257Z,94.37
2022-10-01T22:30:13.880Z,94.24
2022-10-01T22:38:16.838Z,94.32
2022-10-01T22:40:49.867Z,94.18
2022-10-01T22:43:17.333Z,93.97
2022-10-01T22:46:20.374Z,94.10
2022-10-01T22:52:02.870Z,94.15
2022-10-01T22:55:03.023Z,94.18
2022-10-01T23:00:15.908Z,94.20
2022-10-01T23:08:27.186Z,93.98
2022-10-01T23:11:34.090Z,94.10
2022-10-01T23:25:18.192Z,93.88
2022-10-01T23:30:24.139Z,93.70
2022-10-01T23:41:19.616Z,94.11
2022-10-01T23:43:49.534Z,93.44
2022-10-01T23:46:22.871Z,93.51
2022-10-01T23:49:02.357Z,93.26
2022-10-01T23:51:40.148Z,93.22
2022-10-01T23:54:38.808Z,93.43
2022-10-01T23:57:18.468Z,93.47
